Time;durP1;ratioP1;P1;durP2;ratioP2;P2;SDS_P1;SDS_P2;PMS_P1;PMS_P2;Temp;Humidity;BMP_temperature;BMP_pressure;BME280_temperature;BME280_humidity;BME280_pressure;Samples;Min_cycle;Max_cycle;Signal;HPM_P1;HPM_P2
2021/07/13 00:01:47;;;;;;;;;;;;;;;18.93;100.00;99369.23;1793177;80;20110;-68
2021/07/13 00:04:13;;;;;;;;;;;;;;;18.87;100.00;99374.58;1793202;79;21111;-68
2021/07/13 00:06:40;;;;;;;;;;;;;;;18.83;100.00;99371.66;1793149;80;20074;-69
2021/07/13 00:09:07;;;;;;;;;;;;;;;18.78;100.00;99364.44;1793343;78;20113;-68
2021/07/13 00:11:35;;;;;;;;;;;;;;;18.76;100.00;99369.38;1792883;80;20439;-69
2021/07/13 00:14:04;;;;;;;;;;;;;;;18.72;100.00;99369.75;1793246;80;20118;-68
2021/07/13 00:16:32;;;;;;;;;;;;;;;18.68;100.00;99367.41;1793196;80;21180;-68
2021/07/13 00:19:00;;;;;;;;;;;;;;;18.70;100.00;99373.90;1793030;80;20066;-68
2021/07/13 00:21:27;;;;;;;;;;;;;;;18.69;100.00;99370.39;1793322;80;20419;-68
2021/07/13 00:23:55;;;;;;;;;;;;;;;18.68;100.00;99369.33;1793031;79;20110;-69
2021/07/13 00:26:21;;;;;;;;;;;;;;;18.66;100.00;99366.91;1793356;80;20086;-68
2021/07/13 00:28:47;;;;;;;;;;;;;;;18.67;100.00;99375.33;1793520;78;21673;-65
2021/07/13 00:31:15;;;;;;;;;;;;;;;18.71;100.00;99372.77;1792947;80;21567;-68
2021/07/13 00:33:42;;;;;;;;;;;;;;;18.73;100.00;99374.06;1793357;79;20399;-68
2021/07/13 00:36:08;;;;;;;;;;;;;;;18.76;100.00;99375.39;1793276;78;20090;-68
2021/07/13 00:38:35;;;;;;;;;;;;;;;18.78;100.00;99368.52;1792612;80;20098;-68
2021/07/13 00:41:01;;;;;;;;;;;;;;;18.83;100.00;99372.45;1788752;79;21113;-68
2021/07/13 00:43:27;;;;;;;;;;;;;;;18.88;100.00;99367.44;1787004;79;20105;-66
2021/07/13 00:45:54;;;;;;;;;;;;;;;18.93;100.00;99362.42;1787319;80;20373;-67
2021/07/13 00:48:21;;;;;;;;;;;;;;;18.95;100.00;99372.44;1754306;82;20163;-67
2021/07/13 00:50:49;;;;;;;;;;;;;;;18.95;100.00;99369.16;1787087;80;20453;-67
2021/07/13 00:53:16;;;;;;;;;;;;;;;18.93;100.00;99367.30;1754465;82;21569;-66
2021/07/13 00:55:43;;;;;;;;;;;;;;;18.89;100.00;99356.83;1786947;80;20099;-67
2021/07/13 00:58:09;;;;;;;;;;;;;;;18.87;100.00;99359.05;1754510;82;20118;-65
2021/07/13 01:00:36;;;;;;;;;;;;;;;18.81;100.00;99352.96;1786856;79;20166;-66
2021/07/13 01:03:03;;;;;;;;;;;;;;;18.74;100.00;99362.09;1754455;82;20078;-67
2021/07/13 01:05:33;;;;;;;;;;;;;;;18.63;100.00;99363.46;1787098;80;21114;-66
2021/07/13 01:08:20;;;;;;;;;;;;;;;18.53;100.00;99373.24;1764794;79;20113;-66
2021/07/13 01:11:14;;;;;;;;;;;;;;;18.47;100.00;99381.27;1787026;80;20133;-68
2021/07/13 01:13:59;;;;;;;;;;;;;;;18.46;100.00;99377.75;1685600;84;20074;-68
2021/07/13 01:16:30;;;;;;;;;;;;;;;18.46;100.00;99381.03;1683243;84;20479;-68
2021/07/13 01:19:17;;;;;;;;;;;;;;;18.43;100.00;99381.09;1720650;82;20107;-68
2021/07/13 01:21:56;;;;;;;;;;;;;;;18.38;100.00;99377.15;1720913;82;20071;-68
2021/07/13 01:24:43;;;;;;;;;;;;;;;18.35;100.00;99381.85;1721002;82;20079;-66
2021/07/13 01:27:13;;;;;;;;;;;;;;;18.28;100.00;99390.42;1721162;83;20099;-66
2021/07/13 01:29:41;;;;;;;;;;;;;;;18.21;100.00;99400.36;1720650;82;20071;-67
2021/07/13 01:32:07;;;;;;;;;;;;;;;18.21;100.00;99394.13;1720847;82;21175;-67
2021/07/13 01:34:37;;;;;;;;;;;;;;;18.21;100.00;99383.26;1720667;83;20119;-67
2021/07/13 01:37:04;;;;;;;;;;;;;;;18.17;100.00;99377.63;1721243;83;20103;-67
2021/07/13 01:39:32;;;;;;;;;;;;;;;18.13;100.00;99377.22;1720678;83;20166;-67
2021/07/13 01:42:01;;;;;;;;;;;;;;;18.08;100.00;99377.31;1749299;81;20123;-67
2021/07/13 01:44:28;;;;;;;;;;;;;;;18.01;100.00;99377.76;1748575;80;23346;-67
2021/07/13 01:46:54;;;;;;;;;;;;;;;17.96;100.00;99380.59;1726463;79;21630;-67
2021/07/13 01:49:22;;;;;;;;;;;;;;;17.87;100.00;99377.00;1801375;79;20089;-67
2021/07/13 01:51:49;;;;;;;;;;;;;;;17.83;100.00;99373.28;1801111;79;20109;-67
2021/07/13 01:54:17;;;;;;;;;;;;;;;17.77;100.00;99374.72;1771060;79;20070;-67
2021/07/13 01:56:47;;;;;;;;;;;;;;;17.73;100.00;99381.06;1800839;79;21108;-67
2021/07/13 01:59:16;;;;;;;;;;;;;;;17.71;100.00;99375.13;1800880;78;20109;-67
2021/07/13 02:01:42;;;;;;;;;;;;;;;17.68;100.00;99377.11;1801429;79;20086;-67
2021/07/13 02:04:09;;;;;;;;;;;;;;;17.65;100.00;99379.08;1801256;78;20077;-67
2021/07/13 02:06:36;;;;;;;;;;;;;;;17.61;100.00;99382.94;1770605;78;20106;-67
2021/07/13 02:09:08;;;;;;;;;;;;;;;17.60;100.00;99387.34;1801190;78;21114;-67
2021/07/13 02:11:35;;;;;;;;;;;;;;;17.62;100.00;99394.06;1801276;79;20074;-68
2021/07/13 02:14:03;;;;;;;;;;;;;;;17.61;100.00;99383.50;1801452;79;20109;-67
2021/07/13 02:16:30;;;;;;;;;;;;;;;17.61;100.00;99380.79;1801432;79;20079;-67
2021/07/13 02:18:58;;;;;;;;;;;;;;;17.57;100.00;99377.33;1801183;78;20105;-68
2021/07/13 02:21:24;;;;;;;;;;;;;;;17.53;100.00;99378.24;1801232;79;21112;-68
2021/07/13 02:23:52;;;;;;;;;;;;;;;17.51;100.00;99382.61;1801178;79;20090;-68
2021/07/13 02:26:24;;;;;;;;;;;;;;;17.54;100.00;99378.48;1801297;78;20061;-68
2021/07/13 02:28:55;;;;;;;;;;;;;;;17.58;100.00;99386.27;1801242;79;20082;-68
2021/07/13 02:31:24;;;;;;;;;;;;;;;17.64;100.00;99397.28;1801317;79;20102;-67
2021/07/13 02:34:10;;;;;;;;;;;;;;;17.69;100.00;99382.24;1801368;79;21731;-67
2021/07/13 02:36:38;;;;;;;;;;;;;;;17.76;100.00;99385.34;1801025;79;20164;-66
2021/07/13 02:39:06;;;;;;;;;;;;;;;17.84;100.00;99389.84;1801340;79;20085;-67
2021/07/13 02:41:32;;;;;;;;;;;;;;;17.92;100.00;99385.82;1800486;78;20392;-66
2021/07/13 02:44:00;;;;;;;;;;;;;;;17.97;100.00;99384.34;1801193;79;20107;-67
2021/07/13 02:46:28;;;;;;;;;;;;;;;18.04;100.00;99381.77;1801222;78;23257;-66
2021/07/13 02:48:55;;;;;;;;;;;;;;;18.11;100.00;99388.94;1800966;79;20074;-67
2021/07/13 02:51:21;;;;;;;;;;;;;;;18.18;100.00;99384.69;1769412;79;20078;-68
2021/07/13 02:53:49;;;;;;;;;;;;;;;18.27;100.00;99384.73;1745239;79;20077;-67
2021/07/13 02:56:15;;;;;;;;;;;;;;;18.41;100.00;99392.83;1801586;78;20380;-67
2021/07/13 02:58:41;;;;;;;;;;;;;;;18.53;100.00;99393.63;1801222;79;20998;-67
2021/07/13 03:01:08;;;;;;;;;;;;;;;18.63;100.00;99395.52;1801359;78;20062;-67
2021/07/13 03:03:35;;;;;;;;;;;;;;;18.76;100.00;99398.49;1801319;79;20098;-67
2021/07/13 03:06:03;;;;;;;;;;;;;;;18.90;100.00;99406.58;1801532;79;20101;-67
2021/07/13 03:08:30;;;;;;;;;;;;;;;19.02;100.00;99400.78;1801476;79;20061;-67
2021/07/13 03:10:57;;;;;;;;;;;;;;;19.11;100.00;99399.47;1801306;79;21180;-67
2021/07/13 03:13:24;;;;;;;;;;;;;;;19.18;100.00;99393.56;1801276;79;20109;-67
2021/07/13 03:15:50;;;;;;;;;;;;;;;19.29;100.00;99390.80;1801318;79;20086;-67
2021/07/13 03:18:17;;;;;;;;;;;;;;;19.44;100.00;99394.44;1801295;79;20124;-67
2021/07/13 03:20:46;;;;;;;;;;;;;;;19.54;100.00;99400.72;1801855;79;20105;-67
2021/07/13 03:23:12;;;;;;;;;;;;;;;19.51;100.00;99402.16;1801316;79;21125;-66
2021/07/13 03:25:40;;;;;;;;;;;;;;;19.59;100.00;99397.84;1801057;79;20804;-66
2021/07/13 03:28:06;;;;;;;;;;;;;;;19.70;100.00;99401.91;1801194;79;20144;-67
2021/07/13 03:30:33;;;;;;;;;;;;;;;19.80;100.00;99395.35;1769131;79;20106;-67
2021/07/13 03:32:59;;;;;;;;;;;;;;;19.89;100.00;99392.88;1801233;79;20089;-67
2021/07/13 03:35:27;;;;;;;;;;;;;;;19.89;100.00;99392.05;1801555;79;21903;-67
2021/07/13 03:37:53;;;;;;;;;;;;;;;19.89;100.00;99397.50;1801200;79;20097;-68
2021/07/13 03:40:22;;;;;;;;;;;;;;;19.89;100.00;99396.97;1801115;79;20073;-67
2021/07/13 03:42:48;;;;;;;;;;;;;;;19.92;100.00;99394.16;1801183;79;20891;-67
2021/07/13 03:45:18;;;;;;;;;;;;;;;19.90;100.00;99399.92;1801706;78;20340;-68
2021/07/13 03:47:53;;;;;;;;;;;;;;;19.79;100.00;99399.18;1801340;79;21082;-69
2021/07/13 03:50:22;;;;;;;;;;;;;;;19.68;100.00;99397.34;1801028;78;20109;-68
2021/07/13 03:52:49;;;;;;;;;;;;;;;19.61;100.00;99396.41;1801739;79;20078;-66
2021/07/13 03:55:15;;;;;;;;;;;;;;;19.57;100.00;99397.35;1801517;79;20109;-66
2021/07/13 03:57:42;;;;;;;;;;;;;;;19.55;100.00;99398.22;1801218;79;20082;-67
2021/07/13 04:00:10;;;;;;;;;;;;;;;19.55;100.00;99393.61;1801129;79;21176;-67
2021/07/13 04:02:40;;;;;;;;;;;;;;;19.58;100.00;99398.97;1801416;79;20435;-67
2021/07/13 04:05:07;;;;;;;;;;;;;;;19.61;100.00;99401.84;1801764;79;20125;-67
2021/07/13 04:07:35;;;;;;;;;;;;;;;19.64;100.00;99399.05;1770798;79;20073;-68
2021/07/13 04:10:04;;;;;;;;;;;;;;;19.74;100.00;99399.34;1801575;79;20077;-68
2021/07/13 04:12:30;;;;;;;;;;;;;;;19.84;100.00;99401.21;1801392;79;21117;-67
2021/07/13 04:14:59;;;;;;;;;;;;;;;19.94;100.00;99400.06;1801193;79;20073;-68
2021/07/13 04:17:25;;;;;;;;;;;;;;;19.99;100.00;99402.66;1801439;79;20090;-68
2021/07/13 04:19:53;;;;;;;;;;;;;;;20.04;100.00;99398.41;1801170;79;20089;-68
2021/07/13 04:22:21;;;;;;;;;;;;;;;20.01;100.00;99396.30;1800507;78;20121;-68
2021/07/13 04:24:48;;;;;;;;;;;;;;;20.13;100.00;99392.38;1801034;79;21873;-67
2021/07/13 04:27:14;;;;;;;;;;;;;;;20.15;100.00;99398.88;1801047;79;20090;-68
2021/07/13 04:29:41;;;;;;;;;;;;;;;20.21;100.00;99403.59;1801659;78;20372;-68
2021/07/13 04:32:08;;;;;;;;;;;;;;;20.21;100.00;99396.78;1801329;78;20085;-68
2021/07/13 04:34:35;;;;;;;;;;;;;;;20.25;100.00;99393.10;1801273;79;20101;-68
2021/07/13 04:37:03;;;;;;;;;;;;;;;20.33;100.00;99393.67;1801280;79;20416;-68
2021/07/13 04:39:30;;;;;;;;;;;;;;;20.48;100.00;99387.45;1801510;79;20086;-67
2021/07/13 04:41:56;;;;;;;;;;;;;;;20.62;100.00;99388.66;1801237;78;20446;-67
2021/07/13 04:44:22;;;;;;;;;;;;;;;20.66;100.00;99395.08;1801400;78;20073;-68
2021/07/13 04:46:49;;;;;;;;;;;;;;;20.73;100.00;99396.75;1800491;79;20089;-68
2021/07/13 04:49:15;;;;;;;;;;;;;;;20.81;100.00;99389.09;1801314;79;21109;-68
2021/07/13 04:51:41;;;;;;;;;;;;;;;20.90;100.00;99389.08;1801109;79;20073;-68
2021/07/13 04:54:08;;;;;;;;;;;;;;;21.06;100.00;99388.75;1801230;79;20157;-68
2021/07/13 04:56:35;;;;;;;;;;;;;;;21.21;100.00;99394.22;1801282;79;20065;-68
2021/07/13 04:59:01;;;;;;;;;;;;;;;21.32;100.00;99396.04;1801237;79;20109;-68
2021/07/13 05:01:28;;;;;;;;;;;;;;;21.47;100.00;99400.16;1801028;79;21116;-68
2021/07/13 05:03:54;;;;;;;;;;;;;;;;;;1801104;79;20090;-68
2021/07/13 05:06:21;;;;;;;;;;;;;;;21.44;100.00;99409.81;1801195;79;20153;-68
2021/07/13 05:08:48;;;;;;;;;;;;;;;21.53;100.00;99414.64;1801264;79;20101;-68
2021/07/13 05:11:14;;;;;;;;;;;;;;;21.65;100.00;99411.20;1801323;79;20090;-68
2021/07/13 05:13:41;;;;;;;;;;;;;;;21.69;100.00;99415.45;1801237;79;21172;-67
2021/07/13 05:16:07;;;;;;;;;;;;;;;21.73;100.00;99414.46;1801120;79;20101;-68
2021/07/13 05:18:35;;;;;;;;;;;;;;;21.72;100.00;99410.69;1801228;79;20073;-68
2021/07/13 05:21:05;;;;;;;;;;;;;;;21.75;100.00;99414.91;1801221;79;20089;-67
2021/07/13 05:23:31;;;;;;;;;;;;;;;21.75;100.00;99419.58;1801139;79;20105;-68
2021/07/13 05:25:58;;;;;;;;;;;;;;;21.84;100.00;99424.42;1801339;79;21172;-68
2021/07/13 05:28:24;;;;;;;;;;;;;;;21.93;100.00;99423.80;1801297;78;20105;-67
2021/07/13 05:30:50;;;;;;;;;;;;;;;22.00;100.00;99426.01;1801158;78;20089;-67
2021/07/13 05:33:16;;;;;;;;;;;;;;;22.20;100.00;99422.49;1801095;78;20097;-67
2021/07/13 05:35:43;;;;;;;;;;;;;;;22.30;100.00;99424.59;1772275;77;20188;-67
2021/07/13 05:38:10;;;;;;;;;;;;;;;22.31;100.00;99424.23;1768479;79;21111;-67
2021/07/13 05:40:38;;;;;;;;;;;;;;;22.50;100.00;99428.43;1808465;77;20123;-67
2021/07/13 05:43:04;;;;;;;;;;;;;;;22.61;100.00;99426.31;1798640;79;20115;-67
2021/07/13 05:45:31;;;;;;;;;;;;;;;22.73;100.00;99428.25;1798536;79;20100;-67
2021/07/13 05:47:57;;;;;;;;;;;;;;;22.84;100.00;99428.64;1768997;79;20132;-67
2021/07/13 05:50:25;;;;;;;;;;;;;;;23.00;100.00;99429.59;1765255;80;20151;-68
2021/07/13 05:52:52;;;;;;;;;;;;;;;23.03;100.00;99437.15;1764786;80;20088;-68
2021/07/13 05:55:19;;;;;;;;;;;;;;;23.02;100.00;99436.11;1765173;80;20144;-68
2021/07/13 05:57:45;;;;;;;;;;;;;;;23.01;100.00;99430.42;1764949;81;20100;-67
2021/07/13 06:00:12;;;;;;;;;;;;;;;22.97;100.00;99431.63;1765122;81;20092;-68
2021/07/13 06:02:43;;;;;;;;;;;;;;;22.97;100.00;99427.52;1780007;79;21069;-68
2021/07/13 06:05:10;;;;;;;;;;;;;;;23.07;100.00;99433.15;1813486;78;20175;-69
2021/07/13 06:07:47;;;;;;;;;;;;;;;23.07;100.00;99433.95;1838202;78;20232;-68
2021/07/13 06:10:14;;;;;;;;;;;;;;;23.09;100.00;99437.72;1838976;78;20141;-68
2021/07/13 06:12:42;;;;;;;;;;;;;;;23.23;100.00;99440.94;1838451;78;20367;-68
2021/07/13 06:15:11;;;;;;;;;;;;;;;23.24;100.00;99445.26;1839034;78;20100;-68
2021/07/13 06:17:42;;;;;;;;;;;;;;;23.14;100.00;99444.34;1839337;78;20117;-69
2021/07/13 06:20:11;;;;;;;;;;;;;;;23.14;100.00;99448.45;1839273;78;20089;-69
2021/07/13 06:22:38;;;;;;;;;;;;;;;23.26;100.00;99449.83;1839310;78;20108;-69
2021/07/13 06:25:06;;;;;;;;;;;;;;;23.40;100.00;99450.88;1839369;78;20109;-68
2021/07/13 06:27:32;;;;;;;;;;;;;;;23.45;100.00;99447.91;1839632;78;21165;-68
2021/07/13 06:29:59;;;;;;;;;;;;;;;23.70;100.00;99447.89;1839428;78;20124;-69
2021/07/13 06:32:25;;;;;;;;;;;;;;;23.92;100.00;99443.31;1839352;78;20085;-68
2021/07/13 06:34:52;;;;;;;;;;;;;;;23.99;100.00;99441.38;1839609;78;20112;-68
2021/07/13 06:37:19;;;;;;;;;;;;;;;24.04;100.00;99438.38;1839512;78;20120;-68
2021/07/13 06:39:45;;;;;;;;;;;;;;;24.41;100.00;99438.84;1839305;78;21091;-68
2021/07/13 06:42:12;;;;;;;;;;;;;;;24.63;100.00;99439.68;1805367;78;20077;-68
2021/07/13 06:44:39;;;;;;;;;;;;;;;24.74;100.00;99438.58;1832152;77;20061;-68
2021/07/13 06:47:05;;;;;;;;;;;;;;;24.97;100.00;99442.34;1832269;78;20077;-69
2021/07/13 06:49:32;;;;;;;;;;;;;;;25.03;100.00;99450.53;1832436;78;20411;-69
2021/07/13 06:51:58;;;;;;;;;;;;;;;25.14;100.00;99449.45;1832231;78;21098;-69
2021/07/13 06:54:29;;;;;;;;;;;;;;;25.50;100.00;99449.54;1832174;78;20137;-68
2021/07/13 06:56:53;;;;;;;;;;;;;;;25.83;100.00;99449.92;1801043;78;20437;-69
2021/07/13 06:59:19;;;;;;;;;;;;;;;25.90;100.00;99450.70;1798498;78;20111;-69
2021/07/13 07:01:46;;;;;;;;;;;;;;;26.23;100.00;99449.42;1795071;78;20137;-69
2021/07/13 07:04:12;;;;;;;;;;;;;;;26.64;100.00;99449.88;1806595;78;21054;-67
2021/07/13 07:06:38;;;;;;;;;;;;;;;26.76;100.00;99450.30;1806679;79;20083;-68
2021/07/13 07:09:05;;;;;;;;;;;;;;;26.77;100.00;99458.77;1802276;78;20111;-69
2021/07/13 07:11:31;;;;;;;;;;;;;;;26.89;100.00;99450.33;1770068;80;20118;-69
2021/07/13 07:13:59;;;;;;;;;;;;;;;27.05;100.00;99449.65;1799210;78;20131;-69
2021/07/13 07:16:27;;;;;;;;;;;;;;;27.19;100.00;99456.58;1770139;80;20131;-69
2021/07/13 07:18:55;;;;;;;;;;;;;;;27.39;97.40;99449.84;1770784;80;20091;-68
2021/07/13 07:21:22;;;;;;;;;;;;;;;27.47;90.40;99454.89;1798974;78;20166;-69
2021/07/13 07:23:49;;;;;;;;;;;;;;;27.50;91.09;99459.06;1798924;78;20067;-68
2021/07/13 07:26:15;;;;;;;;;;;;;;;27.47;86.59;99458.43;1796190;78;20112;-69
2021/07/13 07:28:42;;;;;;;;;;;;;;;27.61;81.17;99462.00;1795800;78;21077;-69
2021/07/13 07:31:09;;;;;;;;;;;;;;;27.92;79.02;99462.27;1793325;78;20119;-69
2021/07/13 07:33:36;;;;;;;;;;;;;;;28.11;79.88;99466.87;1763440;80;20183;-69
2021/07/13 07:36:03;;;;;;;;;;;;;;;28.07;80.86;99467.98;1741765;80;20103;-68
2021/07/13 07:38:29;;;;;;;;;;;;;;;28.28;81.32;99468.86;1793573;79;20135;-68
2021/07/13 07:40:56;;;;;;;;;;;;;;;28.53;78.53;99474.11;1793602;78;21042;-68
2021/07/13 07:43:22;;;;;;;;;;;;;;;28.74;78.60;99474.95;1773186;78;20152;-68
2021/07/13 07:45:49;;;;;;;;;;;;;;;28.70;77.96;99475.48;1768639;79;20191;-68
2021/07/13 07:48:15;;;;;;;;;;;;;;;28.69;76.53;99462.87;1768692;79;20171;-68
2021/07/13 07:50:41;;;;;;;;;;;;;;;28.66;77.80;99464.98;1769049;81;20112;-68
2021/07/13 07:53:07;;;;;;;;;;;;;;;28.74;78.13;99469.43;1768739;79;21162;-68
2021/07/13 07:55:34;;;;;;;;;;;;;;;28.75;76.97;99464.10;1768440;79;20149;-68
2021/07/13 07:58:00;;;;;;;;;;;;;;;28.53;75.98;99463.66;1768710;80;20191;-68
2021/07/13 08:00:27;;;;;;;;;;;;;;;28.69;77.92;99464.25;1768419;80;20140;-68
2021/07/13 08:02:54;;;;;;;;;;;;;;;28.87;76.77;99467.19;1768870;80;20121;-68
2021/07/13 08:05:22;;;;;;;;;;;;;;;28.90;72.96;99460.89;1768734;79;21105;-69
2021/07/13 08:07:50;;;;;;;;;;;;;;;28.53;73.47;99456.17;1768785;80;20154;-68
2021/07/13 08:10:17;;;;;;;;;;;;;;;28.63;73.74;99450.56;1768529;80;20240;-68
2021/07/13 08:12:45;;;;;;;;;;;;;;;28.97;71.29;99452.68;1761956;80;20105;-68
2021/07/13 08:15:12;;;;;;;;;;;;;;;28.63;72.99;99448.59;1768658;80;20149;-68
2021/07/13 08:17:39;;;;;;;;;;;;;;;28.73;73.40;99447.11;1768740;81;21110;-68
2021/07/13 08:20:09;;;;;;;;;;;;;;;28.97;71.82;99447.16;1768573;80;20112;-69
2021/07/13 08:26:35;;;;;;;;;;;;;;;29.02;73.01;99448.78;1807608;78;20152;-70
2021/07/13 08:29:06;;;;;;;;;;;;;;;29.19;68.32;99446.79;1798062;79;20177;-68
2021/07/13 08:31:32;;;;;;;;;;;;;;;29.24;68.60;99451.17;1809231;78;21113;-67
2021/07/13 08:33:59;;;;;;;;;;;;;;;29.58;67.41;99453.80;1809185;79;20196;-68
2021/07/13 08:36:26;;;;;;;;;;;;;;;29.82;67.77;99452.42;1805996;79;20139;-69
2021/07/13 08:38:53;;;;;;;;;;;;;;;29.69;65.58;99448.59;1808447;79;20101;-68
2021/07/13 08:41:20;;;;;;;;;;;;;;;29.73;67.63;99446.42;1809243;79;20094;-68
2021/07/13 08:43:48;;;;;;;;;;;;;;;29.91;64.95;99448.69;1809901;78;21658;-68
2021/07/13 08:46:15;;;;;;;;;;;;;;;30.08;63.26;99446.60;1776679;79;20122;-68
2021/07/13 08:48:41;;;;;;;;;;;;;;;30.44;60.70;99448.77;1806412;79;20391;-68
2021/07/13 08:51:08;;;;;;;;;;;;;;;30.75;61.41;99443.91;1805702;79;20535;-68
2021/07/13 08:53:35;;;;;;;;;;;;;;;30.44;60.55;99435.71;1806431;78;20113;-69
2021/07/13 08:56:03;;;;;;;;;;;;;;;30.17;63.06;99441.32;1806421;79;21168;-69
2021/07/13 08:58:30;;;;;;;;;;;;;;;29.97;62.09;99440.84;1785715;79;20106;-68
2021/07/13 09:00:57;;;;;;;;;;;;;;;30.17;60.29;99444.87;1805795;78;20133;-69
2021/07/13 09:03:23;;;;;;;;;;;;;;;30.65;56.13;99444.68;1806514;79;20063;-69
2021/07/13 09:06:04;;;;;;;;;;;;;;;30.65;56.07;99448.02;1784875;79;20089;-68
2021/07/13 09:08:33;;;;;;;;;;;;;;;30.53;52.65;99454.73;1786848;79;20137;-67
2021/07/13 09:11:11;;;;;;;;;;;;;;;30.51;54.65;99452.34;1768339;79;20117;-67
2021/07/13 09:13:46;;;;;;;;;;;;;;;30.73;53.52;99444.09;1768616;81;20117;-67
2021/07/13 09:16:20;;;;;;;;;;;;;;;30.54;50.91;99450.17;1777014;79;20074;-68
2021/07/13 09:18:50;;;;;;;;;;;;;;;30.54;52.09;99444.64;1804059;79;20154;-67
2021/07/13 09:21:26;;;;;;;;;;;;;;;30.55;49.11;99446.84;1806670;79;20082;-67
2021/07/13 09:24:12;;;;;;;;;;;;;;;30.36;49.68;99452.11;1811683;78;20117;-67
2021/07/13 09:26:53;;;;;;;;;;;;;;;30.19;51.10;99446.67;1805873;79;20090;-67
2021/07/13 09:29:40;;;;;;;;;;;;;;;30.31;48.93;99449.12;1775954;79;20092;-66
2021/07/13 09:32:29;;;;;;;;;;;;;;;30.32;49.47;99441.00;1764874;80;20442;-65
2021/07/13 09:34:58;;;;;;;;;;;;;;;30.32;50.81;99448.52;1781070;79;21140;-66
2021/07/13 09:37:33;;;;;;;;;;;;;;;30.22;50.66;99439.56;1806320;78;20125;-65
2021/07/13 09:40:12;;;;;;;;;;;;;;;30.32;48.80;99441.00;1806602;79;20082;-66
2021/07/13 09:42:46;;;;;;;;;;;;;;;30.85;49.18;99438.22;1806395;78;20421;-66
2021/07/13 09:45:21;;;;;;;;;;;;;;;30.93;46.26;99442.56;1806621;79;20071;-67
2021/07/13 09:47:51;;;;;;;;;;;;;;;30.87;44.79;99444.16;1806333;79;21113;-67
2021/07/13 09:50:32;;;;;;;;;;;;;;;30.81;44.69;99444.30;1810787;78;20310;-67
2021/07/13 09:53:03;;;;;;;;;;;;;;;30.93;45.60;99441.78;1838420;78;20422;-67
2021/07/13 09:55:29;;;;;;;;;;;;;;;30.88;47.43;99447.12;1839251;78;20101;-67
2021/07/13 09:58:17;;;;;;;;;;;;;;;30.82;46.32;99438.98;1839371;78;20136;-67
2021/07/13 10:00:45;;;;;;;;;;;;;;;30.82;46.40;99447.30;1766767;81;21087;-66
2021/07/13 10:03:16;;;;;;;;;;;;;;;31.04;45.55;99450.91;1730262;83;20426;-66
2021/07/13 10:05:43;;;;;;;;;;;;;;;30.83;42.24;99441.97;1729971;83;20085;-67
2021/07/13 10:08:12;;;;;;;;;;;;;;;30.97;44.39;99442.59;1738370;82;20136;-67
2021/07/13 10:10:38;;;;;;;;;;;;;;;30.90;46.88;99444.75;1701187;84;20099;-68
2021/07/13 10:13:06;;;;;;;;;;;;;;;31.10;46.77;99447.93;1737840;82;21118;-68
2021/07/13 10:15:35;;;;;;;;;;;;;;;31.18;48.07;99445.34;1737479;82;20172;-69
2021/07/13 10:18:03;;;;;;;;;;;;;;;31.19;46.93;99450.33;1737635;82;20108;-68
2021/07/13 10:20:29;;;;;;;;;;;;;;;31.11;45.99;99445.95;1737739;82;20124;-68
2021/07/13 10:22:57;;;;;;;;;;;;;;;31.54;46.18;99441.20;1737743;82;20199;-68
2021/07/13 10:25:35;;;;;;;;;;;;;;;32.02;46.79;99450.45;1737669;82;21130;-68
2021/07/13 10:28:02;;;;;;;;;;;;;;;32.27;47.44;99446.79;1737774;82;20200;-68
2021/07/13 10:30:32;;;;;;;;;;;;;;;32.60;47.43;99449.61;1737608;82;20120;-68
2021/07/13 10:32:59;;;;;;;;;;;;;;;32.13;47.67;99437.91;1737523;82;20196;-69
2021/07/13 10:35:30;;;;;;;;;;;;;;;31.81;48.36;99436.00;1739538;79;20164;-68
2021/07/13 10:38:20;;;;;;;;;;;;;;;31.93;48.99;99429.84;1800247;79;21126;-68
2021/07/13 10:40:45;;;;;;;;;;;;;;;31.69;50.79;99434.25;1768307;79;20120;-68
2021/07/13 10:43:18;;;;;;;;;;;;;;;31.91;49.13;99437.77;1777018;80;20147;-67
2021/07/13 10:45:46;;;;;;;;;;;;;;;31.83;48.17;99429.45;1788879;80;20104;-68
2021/07/13 10:48:20;;;;;;;;;;;;;;;31.92;47.72;99442.11;1788511;80;20143;-67
2021/07/13 10:51:03;;;;;;;;;;;;;;;31.71;48.07;99435.44;1788648;80;21119;-67
2021/07/13 10:53:39;;;;;;;;;;;;;;;31.65;49.02;99425.13;1788746;79;20108;-66
2021/07/13 10:56:13;;;;;;;;;;;;;;;31.57;51.81;99434.07;1788823;80;20084;-67
2021/07/13 10:58:51;;;;;;;;;;;;;;;31.70;49.59;99426.11;1788830;80;20144;-69
2021/07/13 11:01:23;;;;;;;;;;;;;;;31.67;48.80;99431.87;1787627;79;20135;-68
2021/07/13 11:03:51;;;;;;;;;;;;;;;31.32;48.90;99421.00;1788678;80;21683;-67
2021/07/13 11:06:19;;;;;;;;;;;;;;;31.47;50.37;99427.95;1788543;79;20395;-62
2021/07/13 11:08:51;;;;;;;;;;;;;;;31.62;47.82;99425.34;1788839;79;20393;-66
2021/07/13 11:11:29;;;;;;;;;;;;;;;31.63;48.00;99419.19;1788832;80;20450;-66
2021/07/13 11:13:58;;;;;;;;;;;;;;;31.66;47.79;99421.19;1788937;79;20092;-66
2021/07/13 11:16:31;;;;;;;;;;;;;;;31.67;50.33;99417.21;1792884;79;20166;-66
2021/07/13 11:19:00;;;;;;;;;;;;;;;31.74;47.46;99426.30;1797438;80;20115;-66
2021/07/13 11:21:32;;;;;;;;;;;;;;;31.16;47.14;99418.64;1797631;80;20064;-66
2021/07/13 11:24:08;;;;;;;;;;;;;;;30.84;49.42;99417.81;1797589;80;20092;-66
2021/07/13 11:26:37;;;;;;;;;;;;;;;31.12;49.83;99417.05;1797370;80;20092;-66
2021/07/13 11:29:07;;;;;;;;;;;;;;;31.57;49.45;99414.66;1797634;80;21123;-66
2021/07/13 11:31:35;;;;;;;;;;;;;;;31.53;49.28;99413.29;1796391;80;20079;-66
2021/07/13 11:34:05;;;;;;;;;;;;;;;31.16;48.42;99410.90;1797111;79;20401;-66
2021/07/13 11:36:34;;;;;;;;;;;;;;;31.13;49.90;99410.31;1759993;80;20089;-66
2021/07/13 11:39:03;;;;;;;;;;;;;;;31.15;49.88;99403.78;1759447;81;20134;-66
2021/07/13 11:41:29;;;;;;;;;;;;;;;31.21;49.47;99411.09;1760155;80;21724;-66
2021/07/13 11:43:57;;;;;;;;;;;;;;;31.54;52.94;99411.30;1744154;81;20090;-66
2021/07/13 11:46:27;;;;;;;;;;;;;;;32.00;49.84;99411.20;1731494;83;20083;-66
2021/07/13 11:48:59;;;;;;;;;;;;;;;32.23;48.03;99419.63;1731181;81;20119;-66
2021/07/13 11:51:52;;;;;;;;;;;;;;;32.15;47.76;99414.70;1731015;82;20431;-66
2021/07/13 11:54:19;;;;;;;;;;;;;;;32.11;47.79;99411.75;1731453;81;21136;-66
2021/07/13 11:56:47;;;;;;;;;;;;;;;32.01;47.39;99415.55;1731346;81;20091;-67
2021/07/13 11:59:14;;;;;;;;;;;;;;;31.97;47.88;99412.02;1731441;80;20126;-66
2021/07/13 12:01:43;;;;;;;;;;;;;;;31.55;47.51;99410.88;1737494;79;20171;-67
2021/07/13 12:04:11;;;;;;;;;;;;;;;31.52;49.27;99406.14;1767115;79;20192;-67
2021/07/13 12:06:39;;;;;;;;;;;;;;;31.41;51.00;99408.16;1781158;79;21124;-67
2021/07/13 12:09:12;;;;;;;;;;;;;;;31.38;48.82;99409.72;1747169;79;20177;-68
2021/07/13 12:11:43;;;;;;;;;;;;;;;31.56;49.86;99403.38;1733950;80;20082;-68
2021/07/13 12:14:16;;;;;;;;;;;;;;;31.67;46.56;99401.35;1777896;80;20081;-67
2021/07/13 12:16:42;;;;;;;;;;;;;;;31.69;46.76;99403.13;1778375;80;20081;-67
2021/07/13 12:19:16;;;;;;;;;;;;;;;31.59;47.69;99401.19;1777679;80;21824;-68
2021/07/13 12:21:59;;;;;;;;;;;;;;;31.82;48.00;99400.14;1777261;80;20108;-68
2021/07/13 12:24:34;;;;;;;;;;;;;;;31.79;47.60;99389.82;1777054;80;20124;-67
2021/07/13 12:27:03;;;;;;;;;;;;;;;31.58;47.12;99389.91;1777888;80;20554;-68
2021/07/13 12:29:36;;;;;;;;;;;;;;;31.64;48.66;99386.91;1778008;80;20148;-67
2021/07/13 12:32:04;;;;;;;;;;;;;;;32.01;47.16;99384.23;1778057;80;21115;-67
2021/07/13 12:34:41;;;;;;;;;;;;;;;31.98;47.80;99385.83;1779252;80;20085;-67
2021/07/13 12:37:10;;;;;;;;;;;;;;;31.71;48.56;99371.62;1787245;80;20093;-67
2021/07/13 12:39:38;;;;;;;;;;;;;;;31.72;49.72;99388.45;1771818;80;20103;-68
2021/07/13 12:42:13;;;;;;;;;;;;;;;31.74;49.21;99381.91;1762985;80;20108;-69
2021/07/13 12:44:46;;;;;;;;;;;;;;;31.66;47.80;99385.91;1777379;80;21113;-69
2021/07/13 12:47:17;;;;;;;;;;;;;;;31.67;49.10;99373.61;1778144;79;20402;-70
2021/07/13 12:50:05;;;;;;;;;;;;;;;31.84;48.05;99380.30;1777412;80;20105;-70
2021/07/13 12:52:42;;;;;;;;;;;;;;;31.90;46.09;99377.89;1777809;80;20144;-69
2021/07/13 12:55:15;;;;;;;;;;;;;;;31.87;47.94;99366.21;1777645;80;20096;-69